Aviation Digital Data Service (ADDS)

Output produced by METARs form (0417 UTC 26 June 2019)
found at http://www.aviationweather.gov/metar/data/
 
Forecast for: ZSFZ (FUZHOU , CN)
Text: TAF ZSFZ 260313Z 2606/2706 08003MPS 4000 BR BKN015 TX27/2606Z TN23/2621Z
Forecast period: 0600 UTC 26 June 2019 to 0600 UTC 27 June 2019
Forecast type: FROM: standard forecast or significant change
Winds: from the E (80 degrees) at 7 MPH (6 knots; 3.1 m/s)
Visibility: 2.49 miles (4.01 km)
Ceiling: 1500 feet AGL
Clouds: broken clouds at 1500 feet AGL
Weather: BR  (mist)
Text: TEMPO 2606/2612 2500 -TSRA BR BKN008 SCT025CB
Forecast period: 0600 to 1200 UTC 26 June 2019
Forecast type: TEMPORARY: The following changes expected for less than half the time period
Visibility: 1.55 miles (2.49 km)
Ceiling: 800 feet AGL
Clouds: broken clouds at 800 feet AGL
scattered clouds at 2500 feet AGL
Weather: -TSRA BR  (light rain associated with thunderstorm(s), mist)